createdAt,value
2023-03-12T00:03:12.602Z,5.9
2023-03-12T00:18:21.590Z,11.1
2023-03-12T00:33:31.011Z,7.2
2023-03-12T00:48:42.647Z,4.6
2023-03-12T01:03:52.125Z,8.7
2023-03-12T01:19:01.923Z,6.8
2023-03-12T01:34:11.299Z,5.6
2023-03-12T01:49:20.775Z,3.8
2023-03-12T02:04:30.686Z,4.8
2023-03-12T02:19:42.062Z,8.5
2023-03-12T02:34:51.969Z,3.6
2023-03-12T02:50:01.606Z,6.5
2023-03-12T03:05:10.897Z,7.2
2023-03-12T03:20:20.537Z,4.5
2023-03-12T03:35:30.359Z,8.7
2023-03-12T03:50:40.782Z,6.6
2023-03-12T04:05:50.456Z,4
2023-03-12T04:20:59.758Z,4
2023-03-12T04:36:10.304Z,4.5
2023-03-12T04:52:30.520Z,6.9
2023-03-12T05:08:51.179Z,5.7
2023-03-12T05:25:11.889Z,6
2023-03-12T05:41:32.263Z,6.6
2023-03-12T05:57:53.023Z,7.7
2023-03-12T06:14:13.527Z,8.9
2023-03-12T06:30:34.299Z,6.4
2023-03-12T06:47:09.941Z,7.9
2023-03-12T07:03:33.110Z,8.5
2023-03-12T07:19:56.311Z,5.9
2023-03-12T07:36:17.507Z,8.1
2023-03-12T07:52:44.820Z,7.5
2023-03-12T08:09:05.319Z,7.6
2023-03-12T08:25:25.810Z,7.1
2023-03-12T08:41:46.455Z,8
2023-03-12T08:58:06.516Z,7.2
2023-03-12T09:15:05.378Z,6.5
2023-03-12T09:31:25.917Z,5.1
2023-03-12T09:47:46.556Z,5.6
2023-03-12T10:04:08.144Z,4.6
2023-03-12T10:20:29.323Z,7.7
2023-03-12T10:36:50.077Z,8.3
2023-03-12T10:53:10.701Z,5.4
2023-03-12T11:09:31.113Z,6.2
2023-03-12T11:25:51.755Z,7.4
2023-03-12T11:42:12.068Z,6.5
2023-03-12T11:58:32.137Z,9.5
2023-03-12T12:14:52.284Z,9.5
2023-03-12T12:30:02.381Z,7.6
2023-03-12T12:45:11.373Z,8
2023-03-12T13:00:21.220Z,7.4
2023-03-12T13:15:31.031Z,9.1
2023-03-12T13:33:48.198Z,10.1
2023-03-12T13:49:07.550Z,12.6
2023-03-12T14:04:20.707Z,15.7
2023-03-12T14:19:30.231Z,8.1
2023-03-12T14:34:40.070Z,10.3
2023-03-12T14:49:49.999Z,8.9
2023-03-12T15:04:59.702Z,8.1
2023-03-12T15:20:10.017Z,8.2
2023-03-12T15:35:20.622Z,9.3
2023-03-12T15:50:30.981Z,15
2023-03-12T16:05:41.439Z,20.8
2023-03-12T16:20:51.635Z,21.6
2023-03-12T16:36:02.152Z,27.3
2023-03-12T16:51:12.229Z,21.9
2023-03-12T17:06:22.184Z,27.2
2023-03-12T17:21:31.207Z,30.7
2023-03-12T17:36:41.210Z,40.4
2023-03-12T17:51:51.152Z,37.8
2023-03-12T18:07:01.075Z,34.7
2023-03-12T18:22:10.546Z,47.4
2023-03-12T18:37:20.427Z,47.3
2023-03-12T18:52:30.606Z,37.7
2023-03-12T19:07:40.381Z,48.9
2023-03-12T19:22:50.130Z,34.4
2023-03-12T19:38:00.519Z,25.4
2023-03-12T19:53:10.061Z,29.1
2023-03-12T20:08:20.769Z,24.8
2023-03-12T20:23:30.684Z,29.1
2023-03-12T20:38:40.337Z,33.7
2023-03-12T20:53:49.491Z,25.2
2023-03-12T21:08:59.246Z,29.6
2023-03-12T21:24:08.573Z,27.6
2023-03-12T21:39:18.252Z,35.8
2023-03-12T21:54:28.074Z,27.7
2023-03-12T22:10:56.191Z,37.2
2023-03-12T22:26:07.140Z,39.3
2023-03-12T22:41:17.819Z,38.3
2023-03-12T22:56:27.678Z,25.8
2023-03-12T23:11:37.299Z,30.6
2023-03-12T23:26:46.671Z,25.9
2023-03-12T23:41:56.202Z,20.8
2023-03-12T23:57:05.969Z,23.2
